createdAt,value
2018-11-26T00:01:51.839Z,79.11
2018-11-26T00:04:21.482Z,81.95
2018-11-26T00:06:51.151Z,81.44
2018-11-26T00:09:20.853Z,78.09
2018-11-26T00:11:50.566Z,79.65
2018-11-26T00:14:20.275Z,80.23
2018-11-26T00:16:49.896Z,79.32
2018-11-26T00:19:19.552Z,78.37
2018-11-26T00:21:49.306Z,80.07
2018-11-26T00:24:18.955Z,80.94
2018-11-26T00:26:48.726Z,81.15
2018-11-26T00:29:18.331Z,79.76
2018-11-26T00:31:47.989Z,79.61
2018-11-26T00:34:17.758Z,78.20
2018-11-26T00:36:47.670Z,78.70
2018-11-26T00:39:17.282Z,76.67
2018-11-26T00:41:47.003Z,77.00
2018-11-26T00:44:16.643Z,77.04
2018-11-26T00:46:46.289Z,79.35
2018-11-26T00:49:16.122Z,77.94
2018-11-26T00:51:45.728Z,79.27
2018-11-26T00:54:15.455Z,78.22
2018-11-26T00:56:45.111Z,77.21
2018-11-26T00:59:14.758Z,77.98
2018-11-26T01:01:44.411Z,76.98
2018-11-26T01:04:14.057Z,77.77
2018-11-26T01:06:43.717Z,77.84
2018-11-26T01:09:13.398Z,77.60
2018-11-26T01:11:43.126Z,78.93
2018-11-26T01:14:12.770Z,78.64
2018-11-26T01:16:42.532Z,78.74
2018-11-26T01:19:12.119Z,77.25
2018-11-26T01:21:41.772Z,76.89
2018-11-26T01:24:11.402Z,76.58
2018-11-26T01:26:41.055Z,77.09
2018-11-26T01:29:10.778Z,75.88
2018-11-26T01:31:40.394Z,77.41
2018-11-26T01:34:10.095Z,76.21
2018-11-26T01:36:39.807Z,75.83
2018-11-26T01:39:09.523Z,75.05
2018-11-26T01:41:39.229Z,76.94
2018-11-26T01:44:08.941Z,76.69
2018-11-26T01:46:38.583Z,77.10
2018-11-26T01:49:08.239Z,78.83
2018-11-26T01:51:37.896Z,77.74
2018-11-26T01:54:07.592Z,77.82
2018-11-26T01:56:37.231Z,78.61
2018-11-26T01:59:06.943Z,77.84
2018-11-26T02:01:36.590Z,78.18
2018-11-26T02:04:06.374Z,77.72
2018-11-26T02:06:36.044Z,77.25
2018-11-26T02:09:05.945Z,77.44
2018-11-26T02:11:35.588Z,77.97
2018-11-26T02:14:05.295Z,76.24
2018-11-26T02:16:35.079Z,76.96
2018-11-26T02:19:04.788Z,76.85
2018-11-26T02:21:34.499Z,76.92
2018-11-26T02:24:04.120Z,77.78
2018-11-26T02:26:33.923Z,77.56
2018-11-26T02:29:03.555Z,77.62
2018-11-26T02:31:33.343Z,77.44
2018-11-26T02:34:03.332Z,78.82
2018-11-26T02:36:33.070Z,76.12
2018-11-26T02:39:02.715Z,77.58
2018-11-26T02:41:32.393Z,78.32
2018-11-26T02:44:02.660Z,76.89
2018-11-26T02:46:32.327Z,78.66
2018-11-26T02:49:02.035Z,77.03
2018-11-26T02:51:31.648Z,77.72
2018-11-26T02:54:01.318Z,77.05
2018-11-26T02:56:30.990Z,77.02
2018-11-26T02:59:00.775Z,78.75
2018-11-26T03:01:30.404Z,78.45
2018-11-26T03:04:00.095Z,77.20
2018-11-26T03:06:29.837Z,78.22
2018-11-26T03:08:59.556Z,77.45
2018-11-26T03:11:29.204Z,78.31
2018-11-26T03:13:58.841Z,78.61
2018-11-26T03:16:28.481Z,78.30
2018-11-26T03:18:58.226Z,78.84
2018-11-26T03:21:27.884Z,78.57
2018-11-26T03:23:57.614Z,78.11
2018-11-26T03:26:27.494Z,78.39
2018-11-26T03:28:57.103Z,79.41
2018-11-26T03:31:26.815Z,78.36
2018-11-26T03:33:56.526Z,79.05
2018-11-26T03:36:26.139Z,77.91
2018-11-26T03:38:56.163Z,75.96
2018-11-26T03:41:25.971Z,76.44
2018-11-26T03:43:55.608Z,76.49
2018-11-26T03:46:25.297Z,78.01
2018-11-26T03:48:54.991Z,78.29
2018-11-26T03:51:24.616Z,77.80
2018-11-26T03:53:54.264Z,77.62
2018-11-26T03:56:23.965Z,77.25
2018-11-26T03:58:53.557Z,76.97
2018-11-26T04:01:23.240Z,77.77
2018-11-26T04:03:52.947Z,77.57
2018-11-26T04:06:22.572Z,78.34
2018-11-26T04:08:52.215Z,77.29
2018-11-26T04:11:21.898Z,77.14
2018-11-26T04:13:51.619Z,76.56
2018-11-26T04:16:21.267Z,75.96
2018-11-26T04:18:51.076Z,76.46
2018-11-26T04:21:20.715Z,76.15
2018-11-26T04:23:50.407Z,76.06
2018-11-26T04:26:20.058Z,76.02
2018-11-26T04:28:49.735Z,77.45
2018-11-26T04:31:19.383Z,77.98
2018-11-26T04:33:49.135Z,78.57
2018-11-26T04:36:18.800Z,78.10
2018-11-26T04:38:48.554Z,79.16
2018-11-26T04:41:18.243Z,77.49
2018-11-26T04:43:47.966Z,76.19
2018-11-26T04:46:17.608Z,76.56
2018-11-26T04:48:47.295Z,75.78
2018-11-26T04:51:16.956Z,75.72
2018-11-26T04:53:46.647Z,77.19
2018-11-26T04:56:16.323Z,77.12
2018-11-26T04:58:45.995Z,77.87
2018-11-26T05:01:15.665Z,77.23
2018-11-26T05:03:45.359Z,77.86
2018-11-26T05:06:15.009Z,77.67
2018-11-26T05:08:44.673Z,76.51
2018-11-26T05:11:14.380Z,76.29
2018-11-26T05:13:44.040Z,77.27
2018-11-26T05:16:14.496Z,76.40
2018-11-26T05:18:43.390Z,76.73
2018-11-26T05:21:13.064Z,76.38
2018-11-26T05:23:42.732Z,78.37
2018-11-26T05:26:12.390Z,77.96
2018-11-26T05:28:42.055Z,77.52
2018-11-26T05:31:11.771Z,76.69
2018-11-26T05:33:41.568Z,78.05
2018-11-26T05:36:11.380Z,77.51
2018-11-26T05:38:41.055Z,78.23
2018-11-26T05:41:10.731Z,77.44
2018-11-26T05:43:40.380Z,78.45
2018-11-26T05:46:10.035Z,77.95
2018-11-26T05:48:39.711Z,77.39
2018-11-26T05:51:09.388Z,78.36
2018-11-26T05:53:39.043Z,78.70
2018-11-26T05:56:08.739Z,78.10
2018-11-26T05:58:38.376Z,78.41
2018-11-26T06:01:08.056Z,79.19
2018-11-26T06:03:37.720Z,79.00
2018-11-26T06:06:07.511Z,79.85
2018-11-26T06:08:37.196Z,79.53
2018-11-26T06:11:06.878Z,80.52
2018-11-26T06:13:36.554Z,81.08
2018-11-26T06:16:06.267Z,81.11
2018-11-26T06:18:35.945Z,81.25
2018-11-26T06:21:06.376Z,80.36
2018-11-26T06:23:36.118Z,80.20
2018-11-26T06:26:05.783Z,79.41
2018-11-26T06:28:35.512Z,79.89
2018-11-26T06:31:05.916Z,80.24
2018-11-26T06:33:35.688Z,80.85
2018-11-26T06:36:05.858Z,79.23
2018-11-26T06:38:35.525Z,80.65
2018-11-26T06:41:06.247Z,80.60
2018-11-26T06:43:35.919Z,81.16
2018-11-26T06:46:06.657Z,80.29
2018-11-26T06:48:36.773Z,83.30
2018-11-26T06:51:06.819Z,80.38
2018-11-26T06:53:36.492Z,80.01
2018-11-26T06:56:06.533Z,78.38
2018-11-26T06:58:36.192Z,79.13
2018-11-26T07:01:06.241Z,78.57
2018-11-26T07:03:35.927Z,79.42
2018-11-26T07:06:06.195Z,79.11
2018-11-26T07:08:35.855Z,78.85
2018-11-26T07:11:05.983Z,79.43
2018-11-26T07:13:35.707Z,81.14
2018-11-26T07:16:05.718Z,80.23
2018-11-26T07:18:35.878Z,80.29
2018-11-26T07:21:06.484Z,80.81
2018-11-26T07:23:36.250Z,79.89
2018-11-26T07:26:05.899Z,81.29
2018-11-26T07:28:35.569Z,77.76
2018-11-26T07:31:06.119Z,80.03
2018-11-26T07:33:35.787Z,80.09
2018-11-26T07:36:11.213Z,80.48
2018-11-26T07:38:35.198Z,79.69
2018-11-26T07:41:05.573Z,80.14
2018-11-26T07:43:35.267Z,78.66
2018-11-26T07:46:05.571Z,78.47
2018-11-26T07:48:35.291Z,78.73
2018-11-26T07:51:04.975Z,78.81
2018-11-26T07:53:34.667Z,78.21
2018-11-26T07:56:04.415Z,78.85
2018-11-26T07:58:34.115Z,78.51
2018-11-26T08:01:03.824Z,77.86
2018-11-26T08:03:33.491Z,77.95
2018-11-26T08:06:08.711Z,79.14
2018-11-26T08:08:32.815Z,77.63
2018-11-26T08:11:02.488Z,77.32
2018-11-26T08:13:32.180Z,76.81
2018-11-26T08:16:01.868Z,75.55
2018-11-26T08:18:31.539Z,75.82
2018-11-26T08:21:01.212Z,76.46
2018-11-26T08:23:30.883Z,76.97
2018-11-26T08:26:00.592Z,77.66
2018-11-26T08:28:30.444Z,76.59
2018-11-26T08:31:00.140Z,75.39
2018-11-26T08:33:29.837Z,74.66
2018-11-26T08:36:04.918Z,75.95
2018-11-26T08:38:39.980Z,74.66
2018-11-26T08:41:14.611Z,74.97
2018-11-26T08:44:53.091Z,75.91
2018-11-26T08:47:28.247Z,75.27
2018-11-26T08:49:57.923Z,74.03
2018-11-26T08:52:27.671Z,73.79
2018-11-26T08:54:57.355Z,75.35
2018-11-26T08:57:27.094Z,75.49
2018-11-26T08:59:56.760Z,74.67
2018-11-26T09:02:37.607Z,74.32
2018-11-26T09:05:11.740Z,74.05
2018-11-26T09:07:41.472Z,73.44
2018-11-26T09:10:11.148Z,74.18
2018-11-26T09:12:40.801Z,74.91
2018-11-26T09:15:10.885Z,75.04
2018-11-26T09:17:40.532Z,74.83
2018-11-26T09:20:10.931Z,75.94
2018-11-26T09:22:40.600Z,74.21
2018-11-26T09:25:11.705Z,74.10
2018-11-26T09:27:41.377Z,73.33
2018-11-26T09:30:13.979Z,73.21
2018-11-26T09:32:43.691Z,71.53
2018-11-26T09:35:14.715Z,72.76
2018-11-26T09:37:44.367Z,71.44
2018-11-26T09:40:15.719Z,70.73
2018-11-26T09:42:45.415Z,71.89
2018-11-26T09:45:16.255Z,71.66
2018-11-26T09:47:46.164Z,70.48
2018-11-26T09:50:17.064Z,70.24
2018-11-26T09:52:46.713Z,69.19
2018-11-26T09:55:16.879Z,69.69
2018-11-26T09:57:46.545Z,69.30
2018-11-26T10:00:17.368Z,68.97
2018-11-26T10:02:49.790Z,68.33
2018-11-26T10:05:23.645Z,68.33
2018-11-26T10:07:53.304Z,69.89
2018-11-26T10:10:22.992Z,68.91
2018-11-26T10:12:52.653Z,68.87
2018-11-26T10:15:24.348Z,67.85
2018-11-26T10:17:54.016Z,67.70
2018-11-26T10:20:23.671Z,68.68
2018-11-26T10:22:53.808Z,68.83
2018-11-26T10:25:23.723Z,68.22
2018-11-26T10:27:53.376Z,68.60
2018-11-26T10:30:23.907Z,67.95
2018-11-26T10:32:54.106Z,66.65
2018-11-26T10:35:23.776Z,67.34
2018-11-26T10:37:53.448Z,67.08
2018-11-26T10:40:24.991Z,66.60
2018-11-26T10:42:54.747Z,67.19
2018-11-26T10:45:24.968Z,67.04
2018-11-26T10:47:54.626Z,67.31
2018-11-26T10:50:25.624Z,67.93
2018-11-26T10:52:59.101Z,68.06
2018-11-26T10:55:33.822Z,66.19
2018-11-26T10:58:03.662Z,68.03
2018-11-26T11:00:40.100Z,67.18
2018-11-26T11:03:09.751Z,66.34
2018-11-26T11:05:39.990Z,66.15
2018-11-26T11:08:09.640Z,66.28
2018-11-26T11:10:39.309Z,66.12
2018-11-26T11:13:08.999Z,66.03
2018-11-26T11:15:38.666Z,65.44
2018-11-26T11:18:08.587Z,66.03
2018-11-26T11:20:38.342Z,66.29
2018-11-26T11:23:08.927Z,65.02
2018-11-26T11:25:38.717Z,65.54
2018-11-26T11:28:08.383Z,65.23
2018-11-26T11:30:38.064Z,65.27
2018-11-26T11:35:36.708Z,65.05
2018-11-26T11:38:06.817Z,65.52
2018-11-26T11:40:36.490Z,65.71
2018-11-26T11:43:06.389Z,64.80
2018-11-26T11:45:36.150Z,63.79
2018-11-26T11:48:06.504Z,65.10
2018-11-26T11:50:36.185Z,63.84
2018-11-26T11:53:06.081Z,65.57
2018-11-26T11:55:35.768Z,65.69
2018-11-26T11:58:05.436Z,66.25
2018-11-26T12:00:36.343Z,65.90
2018-11-26T12:03:08.433Z,66.91
2018-11-26T12:05:38.103Z,65.01
2018-11-26T12:08:08.184Z,64.99
2018-11-26T12:10:37.858Z,65.00
2018-11-26T12:13:09.608Z,65.99
2018-11-26T12:15:40.537Z,65.06
2018-11-26T12:18:10.940Z,66.35
2018-11-26T12:20:40.614Z,65.93
2018-11-26T12:23:10.284Z,65.88
2018-11-26T12:25:40.010Z,66.02
2018-11-26T12:28:09.660Z,66.65
2018-11-26T12:30:41.598Z,64.48
2018-11-26T12:33:11.262Z,65.23
2018-11-26T12:35:40.987Z,64.62
2018-11-26T12:38:10.732Z,65.42
2018-11-26T12:40:40.412Z,66.03
2018-11-26T12:43:10.075Z,64.93
2018-11-26T12:45:39.780Z,66.30
2018-11-26T12:48:09.436Z,64.81
2018-11-26T12:50:39.185Z,65.42
2018-11-26T12:53:08.845Z,65.12
2018-11-26T12:55:38.707Z,64.73
2018-11-26T12:58:08.393Z,64.64
2018-11-26T13:00:38.523Z,64.06
2018-11-26T13:03:10.525Z,64.48
2018-11-26T13:05:40.172Z,64.61
2018-11-26T13:08:09.860Z,65.36
2018-11-26T13:10:39.547Z,65.23
2018-11-26T13:13:10.145Z,65.58
2018-11-26T13:15:39.804Z,65.27
2018-11-26T13:18:09.475Z,66.60
2018-11-26T13:20:39.125Z,64.71
2018-11-26T13:23:09.509Z,65.45
2018-11-26T13:25:42.000Z,64.17
2018-11-26T13:28:10.225Z,64.66
2018-11-26T13:30:42.741Z,64.67
2018-11-26T13:33:15.416Z,64.55
2018-11-26T13:35:45.917Z,64.68
2018-11-26T13:38:15.685Z,66.14
2018-11-26T13:40:45.342Z,67.07
2018-11-26T13:43:16.172Z,64.94
2018-11-26T13:45:47.136Z,66.13
2018-11-26T13:48:17.781Z,64.72
2018-11-26T13:50:50.856Z,66.28
2018-11-26T13:53:20.697Z,66.33
2018-11-26T13:55:50.407Z,66.87
2018-11-26T13:58:20.096Z,65.84
2018-11-26T14:00:49.776Z,68.79
2018-11-26T14:03:19.437Z,68.53
2018-11-26T14:05:49.100Z,69.69
2018-11-26T14:08:18.752Z,66.94
2018-11-26T14:10:48.431Z,68.21
2018-11-26T14:13:18.088Z,67.78
2018-11-26T14:15:47.820Z,68.00
2018-11-26T14:18:17.461Z,68.17
2018-11-26T14:20:47.177Z,67.90
2018-11-26T14:23:16.928Z,68.90
2018-11-26T14:25:46.595Z,67.71
2018-11-26T14:28:16.336Z,67.52
2018-11-26T14:30:46.052Z,69.46
2018-11-26T14:33:15.932Z,68.05
2018-11-26T14:35:45.606Z,69.96
2018-11-26T14:38:15.282Z,67.80
2018-11-26T14:40:46.632Z,69.48
2018-11-26T14:43:16.316Z,68.56
2018-11-26T14:45:46.052Z,66.52
2018-11-26T14:48:15.704Z,66.47
2018-11-26T14:50:45.381Z,68.43
2018-11-26T14:53:16.208Z,67.09
2018-11-26T14:55:45.881Z,67.93
2018-11-26T14:58:15.562Z,68.71
2018-11-26T15:00:45.229Z,70.43
2018-11-26T15:03:14.896Z,71.34
2018-11-26T15:05:44.602Z,73.59
2018-11-26T15:08:14.257Z,72.08
2018-11-26T15:10:43.916Z,73.37
2018-11-26T15:13:13.570Z,72.77
2018-11-26T15:15:43.234Z,71.86
2018-11-26T15:18:12.897Z,71.45
2018-11-26T15:20:42.553Z,73.62
2018-11-26T15:23:12.393Z,72.66
2018-11-26T15:25:41.894Z,73.25
2018-11-26T15:28:12.716Z,73.63
2018-11-26T15:30:42.384Z,74.43
2018-11-26T15:33:12.116Z,75.29
2018-11-26T15:35:41.804Z,75.25
2018-11-26T15:38:11.511Z,77.00
2018-11-26T15:40:41.169Z,76.37
2018-11-26T15:43:10.825Z,78.83
2018-11-26T15:45:40.503Z,80.16
2018-11-26T15:48:11.690Z,81.64
2018-11-26T15:50:41.549Z,83.89
2018-11-26T15:53:11.253Z,83.73
2018-11-26T15:55:40.945Z,83.09
2018-11-26T15:58:10.797Z,85.39
2018-11-26T16:00:40.457Z,86.46
2018-11-26T16:03:10.109Z,86.82
2018-11-26T16:05:39.969Z,87.65
2018-11-26T16:08:12.080Z,86.91
2018-11-26T16:10:41.773Z,87.54
2018-11-26T16:13:13.190Z,88.44
2018-11-26T16:15:43.825Z,88.66
2018-11-26T16:18:18.893Z,89.10
2018-11-26T16:20:49.196Z,89.27
2018-11-26T16:23:18.917Z,89.80
2018-11-26T16:25:48.924Z,90.28
2018-11-26T16:28:20.387Z,90.88
2018-11-26T16:30:50.057Z,91.52
2018-11-26T16:33:19.870Z,91.52
2018-11-26T16:35:49.529Z,91.62
2018-11-26T16:38:19.217Z,92.01
2018-11-26T16:40:48.889Z,92.40
2018-11-26T16:43:18.561Z,92.29
2018-11-26T16:45:48.292Z,92.08
2018-11-26T16:48:17.985Z,91.96
2018-11-26T16:50:47.684Z,92.04
2018-11-26T16:53:19.449Z,92.63
2018-11-26T16:55:53.256Z,92.24
2018-11-26T16:58:22.925Z,92.58
2018-11-26T17:00:52.601Z,92.01
2018-11-26T17:03:22.274Z,92.11
2018-11-26T17:05:51.963Z,91.90
2018-11-26T17:08:21.625Z,92.69
2018-11-26T17:10:51.290Z,92.54
2018-11-26T17:13:21.017Z,92.07
2018-11-26T17:15:50.697Z,92.27
2018-11-26T17:18:20.433Z,92.05
2018-11-26T17:20:50.169Z,92.31
2018-11-26T17:23:20.105Z,91.21
2018-11-26T17:25:49.876Z,91.66
2018-11-26T17:28:19.576Z,92.98
2018-11-26T17:30:49.285Z,92.51
2018-11-26T17:33:19.153Z,92.54
2018-11-26T17:35:48.921Z,93.13
2018-11-26T17:38:18.589Z,93.47
2018-11-26T17:40:48.245Z,93.99
2018-11-26T17:43:17.913Z,93.93
2018-11-26T17:45:47.667Z,93.84
2018-11-26T17:48:17.421Z,93.43
2018-11-26T17:50:47.072Z,93.64
2018-11-26T17:53:18.776Z,93.49
2018-11-26T17:55:51.429Z,93.17
2018-11-26T17:58:23.294Z,93.47
2018-11-26T18:01:05.784Z,93.30
2018-11-26T18:03:35.488Z,93.33
2018-11-26T18:06:05.316Z,94.03
2018-11-26T18:08:34.972Z,93.86
2018-11-26T18:11:04.952Z,93.62
2018-11-26T18:13:34.809Z,94.05
2018-11-26T18:16:04.589Z,94.00
2018-11-26T18:18:34.320Z,93.36
2018-11-26T18:21:03.984Z,93.48
2018-11-26T18:23:33.654Z,93.07
2018-11-26T18:26:03.508Z,92.55
2018-11-26T18:28:33.196Z,92.33
2018-11-26T18:31:03.785Z,91.42
2018-11-26T18:33:33.464Z,91.87
2018-11-26T18:36:03.500Z,90.96
2018-11-26T18:38:33.287Z,91.82
2018-11-26T18:41:04.073Z,92.40
2018-11-26T18:43:34.342Z,92.02
2018-11-26T18:46:04.066Z,92.41
2018-11-26T18:48:34.005Z,92.76
2018-11-26T18:51:03.917Z,91.28
2018-11-26T18:53:33.842Z,90.48
2018-11-26T18:56:03.518Z,91.47
2018-11-26T18:58:33.221Z,92.06
2018-11-26T19:01:03.023Z,92.50
2018-11-26T19:03:32.741Z,92.08
2018-11-26T19:06:02.467Z,92.40
2018-11-26T19:08:32.153Z,90.96
2018-11-26T19:11:07.498Z,90.51
2018-11-26T19:13:41.461Z,91.42
2018-11-26T19:16:15.773Z,90.23
2018-11-26T19:18:45.584Z,89.92
2018-11-26T19:21:15.375Z,89.25
2018-11-26T19:23:45.112Z,90.93
2018-11-26T19:26:14.847Z,91.18
2018-11-26T19:28:44.601Z,89.72
2018-11-26T19:31:14.304Z,90.28
2018-11-26T19:33:44.537Z,90.73
2018-11-26T19:36:14.200Z,90.56
2018-11-26T19:38:43.983Z,90.09
2018-11-26T19:41:13.642Z,90.20
2018-11-26T19:43:43.309Z,90.53
2018-11-26T19:46:12.974Z,89.24
2018-11-26T19:48:42.674Z,88.71
2018-11-26T19:51:12.405Z,89.33
2018-11-26T19:53:42.231Z,88.63
2018-11-26T19:56:11.968Z,90.57
2018-11-26T19:58:42.451Z,89.52
2018-11-26T20:01:12.859Z,89.88
2018-11-26T20:03:47.281Z,88.77
2018-11-26T20:06:19.194Z,90.12
2018-11-26T20:08:50.259Z,89.58
2018-11-26T20:11:20.026Z,88.91
2018-11-26T20:13:49.723Z,89.87
2018-11-26T20:16:23.630Z,90.86
2018-11-26T20:18:53.585Z,91.03
2018-11-26T20:21:23.280Z,89.94
2018-11-26T20:23:53.005Z,91.04
2018-11-26T20:26:22.674Z,92.13
2018-11-26T20:28:56.944Z,91.86
2018-11-26T20:31:22.109Z,92.26
2018-11-26T20:33:51.910Z,93.28
2018-11-26T20:36:21.533Z,93.48
2018-11-26T20:38:51.217Z,93.47
2018-11-26T20:41:20.881Z,93.67
2018-11-26T20:43:50.809Z,93.78
2018-11-26T20:46:20.477Z,93.84
2018-11-26T20:48:50.411Z,93.56
2018-11-26T20:51:20.072Z,93.88
2018-11-26T20:53:49.761Z,94.22
2018-11-26T20:56:19.537Z,93.09
2018-11-26T20:58:49.236Z,94.19
2018-11-26T21:01:18.906Z,94.07
2018-11-26T21:03:48.688Z,94.61
2018-11-26T21:06:18.386Z,94.53
2018-11-26T21:08:48.039Z,94.57
2018-11-26T21:11:17.796Z,94.52
2018-11-26T21:13:47.502Z,94.33
2018-11-26T21:16:17.223Z,94.29
2018-11-26T21:18:47.024Z,94.22
2018-11-26T21:21:16.723Z,94.68
2018-11-26T21:23:46.378Z,94.10
2018-11-26T21:26:16.069Z,95.00
2018-11-26T21:28:45.737Z,94.26
2018-11-26T21:31:15.513Z,94.49
2018-11-26T21:33:45.241Z,94.44
2018-11-26T21:36:14.907Z,94.57
2018-11-26T21:38:44.649Z,94.92
2018-11-26T21:41:14.338Z,94.45
2018-11-26T21:43:43.996Z,94.61
2018-11-26T21:46:13.664Z,94.05
2018-11-26T21:48:43.316Z,94.80
2018-11-26T21:51:13.024Z,94.90
2018-11-26T21:53:42.778Z,94.77
2018-11-26T21:56:12.499Z,95.07
2018-11-26T21:58:42.165Z,94.84
2018-11-26T22:01:11.844Z,94.89
2018-11-26T22:03:41.516Z,95.17
2018-11-26T22:06:11.333Z,94.64
2018-11-26T22:08:41.023Z,95.09
2018-11-26T22:11:10.757Z,95.19
2018-11-26T22:13:41.400Z,95.15
2018-11-26T22:16:11.181Z,94.54
2018-11-26T22:18:40.981Z,95.19
2018-11-26T22:21:10.655Z,95.13
2018-11-26T22:23:40.339Z,95.40
2018-11-26T22:26:10.008Z,94.93
2018-11-26T22:28:39.656Z,94.86
2018-11-26T22:31:09.382Z,94.54
2018-11-26T22:33:39.044Z,94.55
2018-11-26T22:36:08.804Z,91.76
2018-11-26T22:38:38.465Z,88.61
2018-11-26T22:41:08.151Z,90.46
2018-11-26T22:43:37.811Z,90.99
2018-11-26T22:46:07.484Z,92.61
2018-11-26T22:48:37.161Z,91.88
2018-11-26T22:51:06.881Z,91.71
2018-11-26T22:53:36.580Z,91.43
2018-11-26T22:56:06.524Z,92.57
2018-11-26T22:58:36.206Z,92.50
2018-11-26T23:01:06.732Z,92.35
2018-11-26T23:03:36.422Z,93.12
2018-11-26T23:06:06.865Z,92.08
2018-11-26T23:08:36.553Z,92.49
2018-11-26T23:11:07.179Z,93.05
2018-11-26T23:13:36.836Z,92.16
2018-11-26T23:16:07.269Z,93.12
2018-11-26T23:18:36.966Z,93.01
2018-11-26T23:21:06.634Z,93.49
2018-11-26T23:23:36.325Z,92.99
2018-11-26T23:26:06.544Z,92.63
2018-11-26T23:28:36.288Z,93.52
2018-11-26T23:31:06.400Z,93.02
2018-11-26T23:33:36.076Z,93.48
2018-11-26T23:36:06.308Z,92.48
2018-11-26T23:38:35.964Z,92.76
2018-11-26T23:41:05.673Z,92.44
2018-11-26T23:43:35.340Z,89.62
2018-11-26T23:46:06.088Z,90.13
2018-11-26T23:48:35.857Z,91.50
2018-11-26T23:51:06.369Z,92.71
2018-11-26T23:53:36.016Z,92.35
2018-11-26T23:56:06.307Z,92.75
2018-11-26T23:58:36.012Z,92.26
